Latest Weather Observations for Legendre Island

IDW60801

Issued at 8:32 pm WST Wednesday 10 February 2016 (issued every 30 minutes, with the page automatically refreshed every 10 minutes)

About weather observations | Map of weather stations | Latest weather observations for WA | Other Formats
Station Details ID: 004095 Name: LEGENDRE ISLAND Lat: -20.36 Lon: 116.84 Height: 29.0 m
Data from the previous 72 hours. | See also: Recent months at Legendre Island
Date/Time
WST
Temp
°C
App
Temp
°C
Dew
Point
Rel
Hum
%
Delta-T
°C
Wind Press
QNH
hPa
Press
MSL
hPa
Rain
since 9 am
mm
Dir
 
Spd
km/h
Gust
km/h
Spd
kts
Gust
kts
10/08:30pm 29.1 33.9 28.2 95 0.7 SW 20 24 11 13 1007.7 1007.5 -
10/08:00pm 29.1 33.9 28.2 95 0.7 SW 20 24 11 13 1007.6 1007.4 -
10/07:30pm 29.1 33.8 28.0 94 0.8 WSW 20 22 11 12 1007.4 1007.2 -
10/07:00pm 29.4 33.7 27.2 88 1.6 WSW 19 20 10 11 1007.0 1006.8 -
10/06:30pm 30.2 33.8 26.4 80 2.7 W 20 24 11 13 1006.8 1006.6 -
10/06:00pm 31.1 34.9 26.4 76 3.4 W 19 24 10 13 1006.5 1006.3 -
10/05:30pm 32.0 35.8 26.5 72 4.0 W 19 24 10 13 1006.4 1006.2 -
10/05:00pm 32.5 36.0 26.3 70 4.5 W 20 24 11 13 1006.2 1006.0 -
10/04:30pm 32.9 37.4 26.9 70 4.3 W 17 20 9 11 1006.1 1005.9 -
10/04:00pm 33.0 38.1 27.3 72 4.1 WNW 15 19 8 10 1006.0 1005.8 -
10/03:30pm 32.5 37.0 27.0 73 4.0 WNW 17 22 9 12 1006.2 1006.0 -
10/03:00pm 33.6 38.2 27.1 69 4.7 WNW 17 24 9 13 1006.2 1006.0 -
10/02:30pm 35.1 39.3 25.9 59 6.6 WNW 15 19 8 10 1006.3 1006.1 -
10/02:00pm 35.2 40.0 26.8 62 6.1 W 15 19 8 10 1006.7 1006.5 -
10/01:30pm 34.6 39.4 26.2 61 6.0 W 13 19 7 10 1006.9 1006.7 -
10/01:00pm 34.4 39.3 26.9 65 5.4 W 15 17 8 9 1007.2 1007.0 -
10/12:30pm 33.7 38.0 26.7 67 5.1 W 17 20 9 11 1007.5 1007.3 -
10/12:00pm 35.7 40.2 26.4 58 6.7 WSW 15 19 8 10 1007.8 1007.6 -
10/11:30am 34.8 38.8 26.2 61 6.2 WSW 17 19 9 10 1008.0 1007.8 -
10/11:00am 35.1 40.0 26.4 60 6.3 WSW 13 17 7 9 1008.4 1008.2 -
10/10:30am 35.6 42.2 27.7 63 5.8 SSW 9 13 5 7 1008.7 1008.5 -
10/10:00am 33.5 39.3 27.7 71 4.2 SW 13 17 7 9 1009.0 1008.8 -
10/09:30am 32.9 39.9 29.8 84 2.3 WSW 15 17 8 9 1009.0 1008.8 -
10/09:00am 31.4 37.7 30.1 93 1.0 SW 20 24 11 13 1008.8 1008.6 -
10/08:30am 30.8 37.9 30.8 100 0.0 SW 19 22 10 12 1009.0 1008.8 -
10/08:00am 30.7 37.7 30.7 100 0.0 SW 19 20 10 11 1008.9 1008.7 -
10/07:30am 29.6 36.4 29.6 100 0.0 SW 15 19 8 10 1009.0 1008.8 -
10/07:00am 28.6 34.7 28.6 100 0.0 SSW 15 17 8 9 1009.1 1008.9 -
10/06:30am 27.7 32.4 27.7 100 0.0 SSW 19 20 10 11 1008.9 1008.7 -
10/06:00am 27.4 32.2 27.4 100 0.0 SW 17 17 9 9 1008.6 1008.4 -
10/05:30am 27.5 32.4 27.5 100 0.0 SW 17 20 9 11 1008.4 1008.2 -
10/05:00am 27.3 32.0 27.3 100 0.0 SW 17 19 9 10 1008.2 1008.0 -
10/04:30am 27.2 31.9 27.2 100 0.0 SW 17 17 9 9 1008.0 1007.8 -
10/04:00am 27.3 31.5 27.3 100 0.0 SW 20 20 11 11 1007.8 1007.6 -
10/03:30am 27.2 31.9 27.2 100 0.0 SW 17 20 9 11 1007.8 1007.6 -
10/03:00am 27.4 31.8 27.4 100 0.0 SW 19 24 10 13 1007.7 1007.5 -
10/02:30am 27.9 32.5 27.9 100 0.0 SW 20 24 11 13 1007.9 1007.7 -
10/02:00am 28.0 32.7 28.0 100 0.0 SW 20 24 11 13 1007.7 1007.5 -
10/01:30am 28.0 32.9 28.0 100 0.0 SW 19 20 10 11 1007.9 1007.7 -
10/01:00am 28.0 32.2 27.8 99 0.1 SW 22 26 12 14 1008.2 1008.0 -
10/12:30am 27.5 31.1 27.5 100 0.0 WSW 24 28 13 15 1008.5 1008.3 -
10/12:00am 27.4 31.3 27.4 100 0.0 WSW 22 26 12 14 1008.6 1008.4 -
 
Date/Time
WST
Temp
°C
App
Temp
°C
Dew
Point
Rel
Hum
%
Delta-T
°C
Wind Press
QNH
hPa
Press
MSL
hPa
Rain
since 9 am
mm
Dir
 
Spd
km/h
Gust
km/h
Spd
kts
Gust
kts
09/11:30pm 27.7 32.2 27.7 100 0.0 WSW 20 24 11 13 1008.9 1008.7 -
09/11:00pm 27.6 32.2 27.6 100 0.0 W 19 22 10 12 1009.1 1008.9 -
09/10:30pm 27.4 31.8 27.4 100 0.0 WSW 19 20 10 11 1009.3 1009.1 -
09/10:00pm 27.7 32.7 27.7 100 0.0 WSW 17 19 9 10 1009.4 1009.2 -
09/09:30pm 27.7 33.1 27.7 100 0.0 W 15 19 8 10 1009.1 1008.9 -
09/09:00pm 27.7 32.7 27.7 100 0.0 W 17 19 9 10 1008.8 1008.6 -
09/08:30pm 27.9 33.1 27.9 100 0.0 W 17 19 9 10 1008.7 1008.5 -
09/08:00pm 28.1 33.4 28.1 100 0.0 WSW 17 17 9 9 1008.4 1008.2 -
09/07:30pm 28.4 33.9 28.4 100 0.0 WSW 17 19 9 10 1008.1 1007.9 -
09/07:00pm 28.8 34.1 28.1 96 0.5 WSW 17 19 9 10 1007.6 1007.4 -
09/06:30pm 29.6 34.7 27.8 90 1.3 WSW 17 19 9 10 1007.5 1007.3 -
09/06:00pm 30.1 34.5 27.3 85 2.0 W 19 20 10 11 1007.3 1007.1 -
09/05:30pm 31.1 35.9 27.9 83 2.3 W 19 24 10 13 1007.0 1006.8 -
09/05:00pm 30.8 34.7 26.9 80 2.8 WNW 20 24 11 13 1006.9 1006.7 -
09/04:30pm 31.7 36.4 27.2 77 3.3 WNW 17 22 9 12 1006.8 1006.6 -
09/04:00pm 32.3 36.7 27.3 75 3.6 WNW 19 24 10 13 1006.7 1006.5 -
09/03:30pm 32.2 35.9 27.2 75 3.6 WNW 22 28 12 15 1006.8 1006.6 -
09/03:00pm 32.5 36.8 27.5 75 3.6 WNW 20 24 11 13 1007.0 1006.8 -
09/02:30pm 32.3 36.3 27.1 74 3.8 WNW 20 24 11 13 1007.3 1007.1 -
09/02:00pm 33.0 37.4 26.8 70 4.5 NW 17 22 9 12 1007.6 1007.4 -
09/01:30pm 34.2 37.7 24.2 56 7.0 WNW 13 17 7 9 1008.0 1007.8 -
09/01:00pm 34.2 37.7 24.2 56 7.0 WNW 13 17 7 9 1008.3 1008.1 -
09/12:30pm 35.4 40.3 25.9 58 6.8 WNW 11 15 6 8 1008.5 1008.3 -
09/12:00pm 33.9 38.8 25.3 60 6.1 NW 9 15 5 8 1008.8 1008.6 -
09/11:30am 33.8 37.4 24.4 58 6.6 W 13 20 7 11 1009.0 1008.8 -
09/11:00am 34.0 37.9 24.3 57 6.8 WNW 11 17 6 9 1009.2 1009.0 -
09/10:30am 33.8 39.2 25.5 62 5.9 WNW 7 13 4 7 1009.4 1009.2 -
09/10:00am 33.2 39.0 25.7 64 5.4 NNE 6 9 3 5 1009.7 1009.5 -
09/09:30am 32.4 38.2 25.7 68 4.8 N 6 9 3 5 1009.9 1009.7 -
09/09:00am 31.8 36.9 24.7 66 5.0 N 6 7 3 4 1009.8 1009.6 -
09/08:30am 33.4 39.3 25.9 65 5.4 S 6 11 3 6 1009.6 1009.4 -
09/08:00am 31.8 40.5 30.0 90 1.3 SW 7 11 4 6 1009.5 1009.3 -
09/07:30am 29.3 36.3 29.3 100 0.0 SSW 13 15 7 8 1009.3 1009.1 -
09/07:00am 28.1 33.8 28.1 100 0.0 SW 15 15 8 8 1009.2 1009.0 -
09/06:30am 27.6 33.7 27.6 100 0.0 SW 11 13 6 7 1009.0 1008.8 -
09/06:00am 27.5 32.8 27.5 100 0.0 SW 15 17 8 9 1008.8 1008.6 -
09/05:30am 27.4 32.6 27.4 100 0.0 SW 15 15 8 8 1008.4 1008.2 -
09/05:00am 27.6 33.3 27.6 100 0.0 SW 13 15 7 8 1008.2 1008.0 -
09/04:30am 27.4 32.6 27.4 100 0.0 SW 15 17 8 9 1008.1 1007.9 -
09/04:00am 27.5 33.2 27.5 100 0.0 SW 13 15 7 8 1008.2 1008.0 -
09/03:30am 27.8 32.3 27.8 100 0.0 SW 20 22 11 12 1008.0 1007.8 -
09/03:00am 27.6 32.0 27.6 100 0.0 SSW 20 24 11 13 1008.1 1007.9 -
09/02:30am 27.7 31.8 27.7 100 0.0 SW 22 24 12 13 1008.1 1007.9 -
09/02:00am 27.6 31.6 27.6 100 0.0 SW 22 28 12 15 1008.2 1008.0 -
09/01:30am 27.7 32.7 27.7 100 0.0 SW 17 22 9 12 1008.9 1008.7 -
09/01:00am 27.8 32.0 27.8 100 0.0 WSW 22 26 12 14 1008.6 1008.4 -
09/12:30am 27.3 31.5 27.3 100 0.0 WSW 20 22 11 12 1008.8 1008.6 -
09/12:00am 27.5 31.8 27.5 100 0.0 WSW 20 24 11 13 1009.1 1008.9 -
 
Date/Time
WST
Temp
°C
App
Temp
°C
Dew
Point
Rel
Hum
%
Delta-T
°C
Wind Press
QNH
hPa
Press
MSL
hPa
Rain
since 9 am
mm
Dir
 
Spd
km/h
Gust
km/h
Spd
kts
Gust
kts
08/11:30pm 27.4 31.8 27.4 100 0.0 WSW 19 20 10 11 1009.6 1009.4 -
08/11:00pm 27.4 31.6 26.5 95 0.6 WSW 17 20 9 11 1009.9 1009.7 -
08/10:30pm 27.6 31.2 25.6 89 1.4 WSW 17 19 9 10 1010.1 1009.9 -
08/10:00pm 27.8 30.8 25.6 88 1.6 WSW 20 22 11 12 1010.0 1009.8 -
08/09:30pm 27.8 30.5 26.2 91 1.1 SW 24 26 13 14 1009.8 1009.6 -
08/09:00pm 28.1 31.7 26.5 91 1.1 SW 20 22 11 12 1009.4 1009.2 -
08/08:30pm 28.4 30.8 25.2 83 2.2 SW 22 24 12 13 1008.9 1008.7 -
08/08:00pm 28.9 30.1 24.5 77 3.1 SW 26 32 14 17 1008.4 1008.2 -
08/07:30pm 28.9 29.5 24.2 76 3.3 WSW 28 33 15 18 1008.1 1007.9 -
08/07:00pm 29.0 30.1 24.3 76 3.3 WSW 26 30 14 16 1007.7 1007.5 -
08/06:30pm 29.7 31.4 24.6 74 3.6 WSW 24 28 13 15 1007.4 1007.2 -
08/06:00pm 30.4 33.1 25.0 73 3.8 W 20 24 11 13 1007.1 1006.9 -
08/05:30pm 30.6 32.9 25.0 72 3.9 W 22 26 12 14 1007.0 1006.8 -
08/05:00pm 31.4 34.4 25.5 71 4.2 W 20 26 11 14 1006.9 1006.7 -
08/04:30pm 31.8 34.4 24.9 67 4.9 W 20 24 11 13 1006.9 1006.7 -
08/04:00pm 32.4 35.4 25.5 67 4.9 W 20 24 11 13 1007.0 1006.8 -
08/03:30pm 32.8 36.0 25.9 67 4.9 W 20 24 11 13 1007.2 1007.0 -
08/03:00pm 32.3 35.5 25.9 69 4.6 W 20 24 11 13 1007.5 1007.3 -
08/02:30pm 32.8 36.4 25.6 66 5.1 W 17 20 9 11 1007.9 1007.7 -
08/02:00pm 32.3 35.9 25.6 67 4.8 W 17 20 9 11 1008.2 1008.0 -
08/01:30pm 32.4 36.7 26.7 72 4.1 W 17 20 9 11 1008.5 1008.3 -
08/01:00pm 32.0 36.0 25.6 69 4.6 WSW 15 19 8 10 1008.6 1008.4 -
08/12:30pm 32.0 36.1 26.3 72 4.1 WSW 17 20 9 11 1008.8 1008.6 -
08/12:00pm 32.0 36.5 27.5 77 3.3 WSW 19 24 10 13 1009.2 1009.0 -
08/11:30am 31.1 34.9 26.8 78 3.1 WSW 20 26 11 14 1009.4 1009.2 -
08/11:00am 31.5 36.0 27.8 81 2.7 W 20 24 11 13 1009.7 1009.5 -
08/10:30am 30.4 34.8 27.6 85 2.0 W 20 24 11 13 1009.7 1009.5 -
08/10:00am 30.6 35.7 28.6 89 1.5 W 20 24 11 13 1009.9 1009.7 -
08/09:30am 29.9 35.5 29.0 95 0.7 W 19 22 10 12 1009.9 1009.7 -
08/09:00am 29.4 35.3 29.4 100 0.0 W 19 22 10 12 1009.8 1009.6 -
08/08:30am 29.2 35.0 29.2 100 0.0 WNW 19 22 10 12 1009.7 1009.5 -
08/08:00am 28.4 33.6 28.4 100 0.0 WNW 19 22 10 12 1009.7 1009.5 -
08/07:30am 27.8 32.9 27.8 100 0.0 WNW 17 19 9 10 1009.6 1009.4 -
08/07:00am 27.1 32.1 27.1 100 0.0 NW 15 19 8 10 1009.7 1009.5 -
08/06:30am 26.8 31.6 26.8 100 0.0 W 15 17 8 9 1009.4 1009.2 -
08/06:00am 26.7 31.8 26.7 100 0.0 WNW 13 17 7 9 1009.2 1009.0 -
08/05:30am 26.9 32.1 26.9 100 0.0 WNW 13 15 7 8 1009.1 1008.9 -
08/05:00am 27.0 32.3 27.0 100 0.0 WNW 13 15 7 8 1009.0 1008.8 -
08/04:30am 27.0 33.6 27.0 100 0.0 N 6 7 3 4 1009.0 1008.8 -
08/04:00am 27.6 34.1 27.6 100 0.0 WSW 9 13 5 7 1008.6 1008.4 -
08/03:30am 27.9 31.4 27.9 100 0.0 SW 26 32 14 17 1008.0 1007.8 -
08/03:00am 27.6 29.7 27.6 100 0.0 SW 32 37 17 20 1008.1 1007.9 -
08/02:30am 27.7 29.9 27.7 100 0.0 WSW 32 35 17 19 1008.5 1008.3 -
08/02:00am 27.6 30.5 27.6 100 0.0 SW 28 33 15 18 1008.9 1008.7 -
08/01:30am 27.4 30.5 27.4 100 0.0 WSW 26 33 14 18 1009.2 1009.0 -
08/01:00am 27.4 30.1 27.4 100 0.0 SW 28 35 15 19 1009.3 1009.1 -
08/12:30am 27.4 29.4 27.4 100 0.0 SW 32 37 17 20 1009.3 1009.1 -
08/12:00am 27.4 29.2 27.4 100 0.0 SW 33 39 18 21 1009.6 1009.4 -
 
Date/Time
WST
Temp
°C
App
Temp
°C
Dew
Point
Rel
Hum
%
Delta-T
°C
Wind Press
QNH
hPa
Press
MSL
hPa
Rain
since 9 am
mm
Dir
 
Spd
km/h
Gust
km/h
Spd
kts
Gust
kts
07/11:30pm 27.2 29.0 27.2 100 0.0 WSW 32 35 17 19 1010.3 1010.1 -
07/11:00pm 27.1 29.6 27.1 100 0.0 WSW 28 32 15 17 1010.7 1010.5 -
07/10:30pm 27.1 30.8 27.1 100 0.0 WSW 22 28 12 15 1010.7 1010.5 -
07/10:00pm 27.2 30.9 27.2 100 0.0 WSW 22 24 12 13 1010.6 1010.4 -
07/09:30pm 27.3 31.1 27.3 100 0.0 W 22 28 12 15 1010.3 1010.1 -
07/09:00pm 27.4 30.9 27.4 100 0.0 W 24 28 13 15 1010.0 1009.8 -

Other Formats:

Comma delimited format used in spreadsheet applications
http://www.bom.gov.au/fwo/IDW60801/IDW60801.94307.axf

JavaScript Object Notation format (JSON) in row-major order
http://www.bom.gov.au/fwo/IDW60801/IDW60801.94307.json